ADDS METAR Data INFO
IDs: Format: Raw Decoded Include TAF

Data at: 1326 UTC 19 Jul 2018

KELO 191315Z AUTO 16003KT 10SM CLR 18/15 A2992 RMK AO2
KELO 191255Z AUTO 11003KT 10SM CLR 18/14 A2992 RMK AO2
KELO 191235Z AUTO 00000KT 10SM CLR 17/14 A2992 RMK AO2
KELO 191215Z AUTO 00000KT 10SM CLR 16/14 A2992 RMK AO2
KELO 191155Z AUTO 00000KT 10SM CLR 12/12 A2993 RMK AO2
KELO 191135Z AUTO 00000KT 10SM CLR 12/11 A2993 RMK AO2
KELO 191115Z AUTO 00000KT 10SM CLR 11/11 A2993 RMK AO2
KELO 191055Z AUTO 00000KT 10SM CLR 11/11 A2993 RMK AO2
KELO 191035Z AUTO 00000KT 10SM CLR 11/11 A2994 RMK AO2
KELO 191015Z AUTO 00000KT 10SM CLR 11/11 A2994 RMK AO2
KELO 190955Z AUTO 00000KT 10SM CLR 12/11 A2995 RMK AO2
KELO 190935Z AUTO 00000KT 10SM CLR 12/12 A2995 RMK AO2
KELO 190915Z AUTO 00000KT 10SM CLR 12/12 A2996 RMK AO2
KELO 190855Z AUTO 00000KT 10SM CLR 12/12 A2995 RMK AO2
KELO 190835Z AUTO 00000KT 10SM CLR 12/12 A2996 RMK AO2
KELO 190815Z AUTO 00000KT 10SM CLR 13/13 A2996 RMK AO2
KELO 190755Z AUTO 00000KT 10SM CLR 14/13 A2996 RMK AO2
KELO 190735Z AUTO 00000KT 10SM CLR 14/13 A2997 RMK AO2
KELO 190715Z AUTO 12003KT 10SM CLR 14/13 A2997 RMK AO2
KELO 190655Z AUTO 00000KT 10SM CLR 14/14 A2997 RMK AO2
KELO 190635Z AUTO 00000KT 10SM CLR 15/14 A2997 RMK AO2
KELO 190615Z AUTO 00000KT 10SM CLR 16/12 A2998 RMK AO2
KELO 190555Z AUTO 20003KT 10SM CLR 17/13 A2998 RMK AO2
KELO 190535Z AUTO 19003KT 10SM CLR 18/13 A2998 RMK AO2
KELO 190515Z AUTO 00000KT 10SM CLR 18/13 A2999 RMK AO2
KELO 190455Z AUTO 21003KT 10SM CLR 18/13 A2998 RMK AO2
KELO 190435Z AUTO 22003KT 10SM CLR 18/13 A2998 RMK AO2
KELO 190415Z AUTO 21004KT 10SM CLR 19/13 A2998 RMK AO2
KELO 190355Z AUTO 00000KT 10SM CLR 19/13 A2998 RMK AO2
KELO 190335Z AUTO 00000KT 10SM CLR 19/13 A2997 RMK AO2
KELO 190315Z AUTO 00000KT 10SM CLR 19/14 A2997 RMK AO2
KELO 190255Z AUTO 00000KT 10SM CLR 19/14 A2998 RMK AO2
KELO 190235Z AUTO 00000KT 10SM CLR 21/14 A2997 RMK AO2
KELO 190215Z AUTO 19003KT 10SM CLR 21/14 A2997 RMK AO2
KELO 190155Z AUTO 00000KT 10SM CLR 22/13 A2997 RMK AO2
KELO 190135Z AUTO 21003KT 10SM CLR 23/13 A2997 RMK AO2
KELO 190115Z AUTO 22003KT 10SM CLR 24/13 A2997 RMK AO2
KELO 190055Z AUTO 22004KT 10SM CLR 24/13 A2998 RMK AO2
KELO 190035Z AUTO 22005KT 10SM CLR 25/13 A2999 RMK AO2
KELO 190015Z AUTO 21004KT 10SM CLR 26/12 A2999 RMK AO2
KELO 182355Z AUTO 26006KT 10SM CLR 26/12 A2999 RMK AO2
KELO 182335Z AUTO 21005KT 10SM CLR 26/12 A3000 RMK AO2
KELO 182315Z AUTO 25003KT 10SM CLR 26/12 A3000 RMK AO2
KELO 182255Z AUTO 23007KT 10SM CLR 26/12 A3000 RMK AO2
KELO 182235Z AUTO 23004KT 10SM CLR 26/12 A3001 RMK AO2
KELO 182215Z AUTO 22006KT 10SM CLR 26/11 A3001 RMK AO2
KELO 182155Z AUTO 25005KT 10SM CLR 26/11 A3002 RMK AO2
KELO 182135Z AUTO 25006KT 10SM CLR 26/11 A3002 RMK AO2
KELO 182115Z AUTO 20006KT 10SM CLR 26/10 A3003 RMK AO2
KELO 182055Z AUTO 23006KT 10SM CLR 26/10 A3003 RMK AO2
KELO 182035Z AUTO 23006KT 10SM CLR 26/11 A3003 RMK AO2
KELO 182015Z AUTO 18004KT 10SM CLR 26/11 A3004 RMK AO2
KELO 181955Z AUTO 22004KT 10SM CLR 26/11 A3003 RMK AO2
KELO 181935Z AUTO 19008KT 10SM CLR 26/12 A3004 RMK AO2
KELO 181915Z AUTO 22006KT 10SM SCT050 26/12 A3004 RMK AO2
KELO 181855Z AUTO 25008KT 10SM SCT050 25/12 A3005 RMK AO2
KELO 181835Z AUTO 22007G14KT 10SM SCT050 26/12 A3005 RMK AO2
KELO 181815Z AUTO 24008KT 170V240 10SM CLR 25/12 A3006 RMK AO2
KELO 181755Z AUTO 26004KT 10SM CLR 24/12 A3006 RMK AO2
KELO 181735Z AUTO 00000KT 10SM CLR 24/11 A3007 RMK AO2
KELO 181715Z AUTO 24007KT 10SM CLR 24/11 A3007 RMK AO2
KELO 181655Z AUTO 18003KT 10SM CLR 23/11 A3008 RMK AO2
KELO 181635Z AUTO 24007KT 230V290 10SM CLR 23/12 A3009 RMK AO2
KELO 181615Z AUTO 24007KT 190V250 10SM CLR 23/12 A3009 RMK AO2
KELO 181555Z AUTO 25004KT 10SM CLR 22/12 A3010 RMK AO2
KELO 181535Z AUTO 20005KT 10SM CLR 22/12 A3011 RMK AO2
KELO 181515Z AUTO 21006KT 10SM CLR 22/12 A3011 RMK AO2
KELO 181455Z AUTO 24004KT 10SM CLR 21/12 A3011 RMK AO2
KELO 181435Z AUTO 23006KT 10SM CLR 21/12 A3011 RMK AO2
KELO 181415Z AUTO 00000KT 10SM CLR 20/13 A3012 RMK AO2
KELO 181355Z AUTO 00000KT 10SM CLR 19/12 A3012 RMK AO2
KELO 181335Z AUTO 23003KT 10SM CLR 18/13 A3012 RMK AO2
KELO 181315Z AUTO 00000KT 10SM CLR 17/13 A3013 RMK AO2
KELO 181255Z AUTO 00000KT 10SM CLR 16/12 A3014 RMK AO2
KELO 181235Z AUTO 00000KT 10SM CLR 16/13 A3014 RMK AO2
KELO 181215Z AUTO 00000KT 10SM CLR 14/12 A3013 RMK AO2
KELO 181155Z AUTO 00000KT 10SM CLR 13/11 A3013 RMK AO2
KELO 181135Z AUTO 00000KT 10SM CLR 12/11 A3013 RMK AO2
KELO 181115Z AUTO 00000KT 10SM CLR 10/09 A3013 RMK AO2
KELO 181055Z AUTO 00000KT 10SM CLR 09/09 A3012 RMK AO2
KELO 181035Z AUTO 00000KT 10SM CLR 09/09 A3012 RMK AO2
KELO 181015Z AUTO 00000KT 10SM CLR 09/08 A3012 RMK AO2
KELO 180955Z AUTO 00000KT 10SM CLR 09/08 A3012 RMK AO2
KELO 180935Z AUTO 00000KT 10SM CLR 09/09 A3011 RMK AO2
KELO 180915Z AUTO 00000KT 10SM CLR 09/09 A3011 RMK AO2
KELO 180855Z AUTO 00000KT 10SM CLR 09/09 A3011 RMK AO2
KELO 180835Z AUTO 00000KT 10SM CLR 09/09 A3012 RMK AO2
KELO 180815Z AUTO 00000KT 10SM CLR 09/09 A3011 RMK AO2
KELO 180755Z AUTO 00000KT 10SM CLR 11/10 A3011 RMK AO2
KELO 180735Z AUTO 12003KT 10SM CLR 11/10 A3011 RMK AO2
KELO 180715Z AUTO 00000KT 10SM CLR 11/11 A3011 RMK AO2
KELO 180655Z AUTO 00000KT 10SM SCT050 12/11 A3011 RMK AO2
KELO 180635Z AUTO 14003KT 10SM SCT050 12/11 A3011 RMK AO2
KELO 180615Z AUTO 00000KT 10SM SCT060 11/11 A3012 RMK AO2
KELO 180555Z AUTO 00000KT 10SM SCT060 12/11 A3012 RMK AO2
KELO 180536Z AUTO 00000KT 10SM SCT060 12/11 A3012 RMK AO2
KELO 180515Z AUTO 00000KT 10SM SCT060 12/11 A3011 RMK AO2
KELO 180455Z AUTO 00000KT 10SM SCT060 12/11 A3011 RMK AO2
KELO 180435Z AUTO 00000KT 10SM SCT060 12/11 A3011 RMK AO2
KELO 180415Z AUTO 00000KT 10SM CLR 12/11 A3011 RMK AO2
KELO 180355Z AUTO 00000KT 10SM CLR 13/10 A3011 RMK AO2
KELO 180335Z AUTO 00000KT 10SM CLR 13/11 A3011 RMK AO2
KELO 180315Z AUTO 00000KT 10SM CLR 14/11 A3011 RMK AO2
KELO 180255Z AUTO 00000KT 10SM CLR 14/11 A3011 RMK AO2
KELO 180235Z AUTO 00000KT 10SM CLR 16/11 A3011 RMK AO2
KELO 180215Z AUTO 00000KT 10SM CLR 16/11 A3011 RMK AO2
KELO 180155Z AUTO 00000KT 10SM CLR 18/11 A3011 RMK AO2
KELO 180135Z AUTO 00000KT 10SM CLR 19/10 A3011 RMK AO2